createdAt,value
2022-11-05T00:21:07.042Z,10.44
2022-11-05T00:23:53.683Z,10.42
2022-11-05T00:26:21.660Z,10.49
2022-11-05T00:28:49.662Z,10.55
2022-11-05T00:31:20.096Z,10.49
2022-11-05T00:33:48.022Z,10.44
2022-11-05T00:36:16.023Z,10.30
2022-11-05T00:38:43.941Z,10.07
2022-11-05T00:41:11.978Z,10.01
2022-11-05T00:43:58.453Z,9.99
2022-11-05T00:46:26.568Z,9.97
2022-11-05T00:49:13.031Z,10.08
2022-11-05T00:51:41.001Z,10.09
2022-11-05T00:54:08.934Z,10.04
2022-11-05T00:56:36.850Z,10.05
2022-11-05T00:59:05.033Z,10.12
2022-11-05T01:01:33.264Z,10.10
2022-11-05T01:04:01.260Z,10.13
2022-11-05T01:06:29.229Z,10.17
2022-11-05T01:08:57.273Z,10.02
2022-11-05T01:11:34.476Z,9.88
2022-11-05T01:14:11.341Z,9.94
2022-11-05T01:16:40.682Z,9.95
2022-11-05T01:19:10.056Z,9.92
2022-11-05T01:21:38.407Z,9.85
2022-11-05T01:24:06.804Z,9.82
2022-11-05T01:26:34.717Z,9.91
2022-11-05T01:29:02.689Z,10.03
2022-11-05T01:31:30.962Z,10.14
2022-11-05T01:34:01.756Z,10.23
2022-11-05T01:36:30.336Z,10.25
2022-11-05T01:38:58.232Z,10.11
2022-11-05T01:41:26.386Z,10.11
2022-11-05T01:43:57.077Z,10.20
2022-11-05T01:46:33.113Z,10.29
2022-11-05T01:49:15.691Z,10.34
2022-11-05T01:51:45.819Z,10.43
2022-11-05T01:54:18.350Z,10.49
2022-11-05T01:57:03.111Z,10.49
2022-11-05T01:59:37.802Z,10.40
2022-11-05T02:02:08.006Z,10.36
2022-11-05T02:05:04.529Z,10.43
2022-11-05T02:07:33.985Z,10.40
2022-11-05T02:10:08.890Z,10.45
2022-11-05T02:12:41.540Z,10.51
2022-11-05T02:15:14.815Z,10.50
2022-11-05T02:17:51.955Z,10.19
2022-11-05T02:20:33.808Z,10.15
2022-11-05T02:23:29.210Z,10.21
2022-11-05T02:26:18.556Z,10.28
2022-11-05T02:28:46.454Z,10.11
2022-11-05T02:31:32.562Z,10.13
2022-11-05T02:34:35.731Z,10.12
2022-11-05T02:37:13.800Z,10.21
2022-11-05T02:39:56.219Z,10.30
2022-11-05T02:42:38.600Z,10.31
2022-11-05T02:45:52.510Z,10.36
2022-11-05T02:48:35.117Z,10.45
2022-11-05T02:51:13.674Z,10.55
2022-11-05T02:54:00.086Z,10.61
2022-11-05T02:56:32.993Z,10.61
2022-11-05T02:59:00.885Z,10.64
2022-11-05T03:01:28.915Z,10.67
2022-11-05T03:04:01.014Z,10.62
2022-11-05T03:06:47.691Z,10.35
2022-11-05T03:09:31.348Z,10.16
2022-11-05T03:12:14.835Z,10.23
2022-11-05T03:14:56.085Z,10.35
2022-11-05T03:17:51.926Z,10.45
2022-11-05T03:20:32.658Z,10.50
2022-11-05T03:23:30.083Z,10.54
2022-11-05T03:26:26.447Z,10.55
2022-11-05T03:29:13.238Z,10.57
2022-11-05T03:31:48.487Z,10.63
2022-11-05T03:34:26.841Z,10.56
2022-11-05T03:37:00.265Z,10.53
2022-11-05T03:39:46.065Z,10.59
2022-11-05T03:42:23.773Z,10.58
2022-11-05T03:44:58.963Z,10.58
2022-11-05T03:47:35.802Z,10.52
2022-11-05T03:50:27.981Z,10.47
2022-11-05T03:53:05.799Z,10.51
2022-11-05T03:55:40.197Z,10.52
2022-11-05T03:58:10.134Z,10.41
2022-11-05T04:00:38.447Z,10.18
2022-11-05T04:03:06.476Z,10.14
2022-11-05T04:05:34.631Z,10.19
2022-11-05T04:08:21.142Z,10.26
2022-11-05T04:11:07.730Z,10.25
2022-11-05T04:13:35.846Z,10.34
2022-11-05T04:16:22.677Z,10.40
2022-11-05T04:18:50.583Z,10.49
2022-11-05T04:21:39.639Z,10.53
2022-11-05T04:24:10.520Z,10.58
2022-11-05T04:26:43.846Z,10.66
2022-11-05T04:29:50.306Z,10.64
2022-11-05T04:32:18.257Z,10.49
2022-11-05T04:34:46.629Z,10.46
2022-11-05T04:37:14.565Z,10.50
2022-11-05T04:39:42.545Z,10.50
2022-11-05T04:42:10.480Z,10.52
2022-11-05T04:44:38.513Z,10.57
2022-11-05T04:47:06.522Z,10.59
2022-11-05T04:49:34.594Z,10.60
2022-11-05T04:52:02.553Z,10.67
2022-11-05T04:54:30.966Z,10.70
2022-11-05T04:56:59.044Z,10.66
2022-11-05T04:59:26.995Z,10.63
2022-11-05T05:01:54.990Z,10.63
2022-11-05T05:04:23.016Z,10.68
2022-11-05T05:06:51.088Z,10.80
2022-11-05T05:09:19.009Z,10.87
2022-11-05T05:11:47.053Z,10.81
2022-11-05T05:14:15.061Z,10.77
2022-11-05T05:16:42.957Z,10.82
2022-11-05T05:19:10.961Z,10.87
2022-11-05T05:21:39.091Z,10.89
2022-11-05T05:24:13.624Z,10.91
2022-11-05T05:26:49.689Z,10.92
2022-11-05T05:29:18.420Z,10.95
2022-11-05T05:31:46.690Z,10.95
2022-11-05T05:34:15.119Z,10.92
2022-11-05T05:36:43.179Z,10.83
2022-11-05T05:39:11.358Z,10.82
2022-11-05T05:41:39.534Z,10.86
2022-11-05T05:44:07.684Z,10.91
2022-11-05T05:46:35.696Z,10.92
2022-11-05T05:49:09.444Z,10.95
2022-11-05T05:51:40.384Z,10.74
2022-11-05T05:54:08.541Z,10.57
2022-11-05T05:56:36.531Z,10.67
2022-11-05T05:59:05.805Z,10.79
2022-11-05T06:01:33.915Z,10.89
2022-11-05T06:04:02.145Z,10.95
2022-11-05T06:06:30.305Z,10.99
2022-11-05T06:08:58.230Z,11.07
2022-11-05T06:11:26.724Z,11.02
2022-11-05T06:13:54.636Z,11.08
2022-11-05T06:16:22.649Z,11.16
2022-11-05T06:18:50.546Z,11.24
2022-11-05T06:21:18.569Z,11.30
2022-11-05T06:23:48.389Z,11.35
2022-11-05T06:26:18.661Z,11.32
2022-11-05T06:28:46.755Z,11.32
2022-11-05T06:31:15.609Z,11.38
2022-11-05T06:33:43.518Z,11.50
2022-11-05T06:36:15.851Z,11.57
2022-11-05T06:38:43.941Z,11.58
2022-11-05T06:41:11.878Z,11.60
2022-11-05T06:43:40.026Z,11.57
2022-11-05T06:46:09.661Z,11.64
2022-11-05T06:48:38.275Z,11.72
2022-11-05T06:51:08.201Z,11.79
2022-11-05T06:53:36.699Z,11.89
2022-11-05T06:56:06.368Z,11.92
2022-11-05T06:58:34.806Z,11.99
2022-11-05T07:01:10.726Z,12.08
2022-11-05T07:03:39.213Z,12.09
2022-11-05T07:06:07.853Z,11.99
2022-11-05T07:08:38.048Z,11.95
2022-11-05T07:11:06.252Z,11.92
2022-11-05T07:13:34.295Z,12.01
2022-11-05T07:16:02.650Z,12.07
2022-11-05T07:18:30.609Z,12.12
2022-11-05T07:20:59.645Z,12.18
2022-11-05T07:23:27.614Z,12.22
2022-11-05T07:25:57.034Z,12.24
2022-11-05T07:28:25.025Z,12.29
2022-11-05T07:30:54.100Z,12.30
2022-11-05T07:33:24.396Z,12.34
2022-11-05T07:35:52.290Z,12.33
2022-11-05T07:38:20.154Z,12.35
2022-11-05T07:40:48.279Z,12.34
2022-11-05T07:43:16.590Z,12.27
2022-11-05T07:45:45.875Z,12.32
2022-11-05T07:48:16.889Z,12.36
2022-11-05T07:50:44.894Z,12.41
2022-11-05T07:53:15.216Z,12.46
2022-11-05T07:55:45.974Z,12.46
2022-11-05T07:58:14.386Z,12.53
2022-11-05T08:00:42.793Z,12.56
2022-11-05T08:03:14.525Z,12.64
2022-11-05T08:05:46.161Z,12.72
2022-11-05T08:08:16.670Z,12.69
2022-11-05T08:10:45.005Z,12.51
2022-11-05T08:13:14.125Z,12.54
2022-11-05T08:15:43.352Z,12.66
2022-11-05T08:18:14.667Z,12.81
2022-11-05T08:20:44.188Z,12.92
2022-11-05T08:23:12.870Z,12.97
2022-11-05T08:25:42.015Z,13.06
2022-11-05T08:28:13.583Z,13.21
2022-11-05T08:30:41.959Z,13.36
2022-11-05T08:33:12.549Z,13.49
2022-11-05T08:35:41.081Z,13.63
2022-11-05T08:38:13.830Z,13.80
2022-11-05T08:40:44.265Z,13.96
2022-11-05T08:43:14.086Z,13.93
2022-11-05T08:45:42.727Z,13.88
2022-11-05T08:48:14.973Z,13.97
2022-11-05T08:50:44.373Z,14.13
2022-11-05T08:53:12.942Z,14.21
2022-11-05T08:55:41.299Z,14.33
2022-11-05T08:58:15.455Z,14.41
2022-11-05T09:00:45.858Z,14.54
2022-11-05T09:03:15.114Z,14.78
2022-11-05T09:05:43.913Z,14.82
2022-11-05T09:08:17.505Z,14.94
2022-11-05T09:10:47.008Z,15.04
2022-11-05T09:13:18.807Z,15.16
2022-11-05T09:15:49.243Z,15.23
2022-11-05T09:18:18.917Z,15.24
2022-11-05T09:20:47.256Z,15.21
2022-11-05T09:23:15.725Z,15.20
2022-11-05T09:25:45.049Z,15.16
2022-11-05T09:28:16.844Z,15.13
2022-11-05T09:30:48.090Z,15.22
2022-11-05T09:33:17.986Z,15.29
2022-11-05T09:35:46.595Z,15.24
2022-11-05T09:38:15.052Z,15.30
2022-11-05T09:41:02.737Z,15.38
2022-11-05T09:43:42.241Z,15.42
2022-11-05T09:46:25.771Z,15.48
2022-11-05T09:49:06.947Z,15.49
2022-11-05T09:51:36.925Z,15.13
2022-11-05T09:54:05.887Z,15.18
2022-11-05T09:56:37.598Z,15.27
2022-11-05T09:59:15.389Z,15.39
2022-11-05T10:01:43.776Z,15.60
2022-11-05T10:04:24.179Z,15.93
2022-11-05T10:07:01.823Z,16.23
2022-11-05T10:09:51.529Z,16.52
2022-11-05T10:12:45.037Z,16.88
2022-11-05T10:15:22.697Z,17.24
2022-11-05T10:17:56.754Z,17.56
2022-11-05T10:20:38.019Z,17.50
2022-11-05T10:23:12.065Z,17.50
2022-11-05T10:25:44.017Z,17.61
2022-11-05T10:28:18.519Z,17.77
2022-11-05T10:30:49.226Z,17.93
2022-11-05T10:33:28.229Z,18.05
2022-11-05T10:36:03.636Z,18.12
2022-11-05T10:38:32.257Z,18.01
2022-11-05T10:41:18.868Z,17.84
2022-11-05T10:43:54.049Z,17.96
2022-11-05T10:46:35.832Z,18.12
2022-11-05T10:49:15.297Z,18.35
2022-11-05T10:51:44.121Z,18.42
2022-11-05T10:54:19.349Z,18.26
2022-11-05T10:56:48.055Z,18.40
2022-11-05T10:59:28.384Z,18.43
2022-11-05T11:02:19.821Z,18.35
2022-11-05T11:04:53.165Z,18.21
2022-11-05T11:07:26.059Z,18.22
2022-11-05T11:09:54.406Z,18.15
2022-11-05T11:12:27.575Z,18.11
2022-11-05T11:15:13.691Z,18.14
2022-11-05T11:17:41.882Z,17.89
2022-11-05T11:20:30.230Z,17.83
2022-11-05T11:23:15.849Z,17.75
2022-11-05T11:25:58.209Z,17.57
2022-11-05T11:28:36.398Z,17.52
2022-11-05T11:31:22.381Z,17.56
2022-11-05T11:33:58.108Z,17.46
2022-11-05T11:36:36.269Z,17.48
2022-11-05T11:39:07.129Z,17.59
2022-11-05T11:41:39.296Z,17.71
2022-11-05T11:44:16.606Z,17.74
2022-11-05T11:46:49.589Z,17.71
2022-11-05T11:49:45.109Z,17.70
2022-11-05T11:52:25.388Z,17.81
2022-11-05T11:54:53.753Z,17.95
2022-11-05T11:57:26.583Z,18.03
2022-11-05T12:00:12.344Z,18.11
2022-11-05T12:02:57.274Z,18.16
2022-11-05T12:06:10.825Z,18.11
2022-11-05T12:09:06.446Z,18.31
2022-11-05T12:11:43.693Z,18.35
2022-11-05T12:14:17.657Z,18.30
2022-11-05T12:17:02.818Z,18.34
2022-11-05T12:20:04.151Z,18.45
2022-11-05T12:23:04.240Z,18.27
2022-11-05T12:25:35.112Z,18.24
2022-11-05T12:28:21.095Z,18.14
2022-11-05T12:30:53.333Z,18.01
2022-11-05T12:33:34.974Z,18.04
2022-11-05T12:36:22.722Z,17.98
2022-11-05T12:38:57.696Z,17.84
2022-11-05T12:41:37.607Z,17.70
2022-11-05T12:44:17.878Z,17.73
2022-11-05T12:46:53.785Z,17.65
2022-11-05T12:49:42.088Z,17.58
2022-11-05T12:52:16.152Z,17.59
2022-11-05T12:55:27.710Z,17.54
2022-11-05T12:58:08.828Z,17.63
2022-11-05T13:00:39.794Z,17.52
2022-11-05T13:03:40.191Z,17.55
2022-11-05T13:06:11.549Z,17.58
2022-11-05T13:08:52.040Z,17.58
2022-11-05T13:11:29.832Z,17.54
2022-11-05T13:14:23.785Z,17.61
2022-11-05T13:16:59.086Z,17.61
2022-11-05T13:19:36.598Z,17.61
2022-11-05T13:22:13.540Z,17.64
2022-11-05T13:24:55.494Z,17.65
2022-11-05T13:27:29.532Z,17.66
2022-11-05T13:30:04.835Z,17.68
2022-11-05T13:32:39.444Z,17.66
2022-11-05T13:35:16.854Z,17.52
2022-11-05T13:38:07.409Z,17.43
2022-11-05T13:40:55.541Z,17.27
2022-11-05T13:44:19.234Z,17.32
2022-11-05T13:47:21.243Z,17.36
2022-11-05T13:49:55.038Z,17.30
2022-11-05T13:53:01.506Z,17.32
2022-11-05T13:56:00.067Z,17.33
2022-11-05T13:58:52.602Z,17.17
2022-11-05T14:01:42.324Z,17.07
2022-11-05T14:04:44.897Z,17.07
2022-11-05T14:07:34.509Z,17.12
2022-11-05T14:10:26.911Z,17.15
2022-11-05T14:12:56.698Z,17.17
2022-11-05T14:15:28.503Z,17.13
2022-11-05T14:18:18.444Z,17.13
2022-11-05T14:21:03.792Z,17.07
2022-11-05T14:23:50.246Z,17.02
2022-11-05T14:26:21.587Z,17.00
2022-11-05T14:29:03.020Z,16.96
